Time;durP1;ratioP1;P1;durP2;ratioP2;P2;SDS_P1;SDS_P2;PMS_P1;PMS_P2;Temp;Humidity;BMP_temperature;BMP_pressure;BME280_temperature;BME280_humidity;BME280_pressure;Samples;Min_cycle;Max_cycle;Signal;HPM_P1;HPM_P2
2022/11/15 04:43:38;;;;;;;20.80;11.02;;;;;;;4.94;100.00;100755.09;5264683;28;20146;-84
2022/11/15 04:46:59;;;;;;;21.30;10.80;;;;;;;4.95;100.00;100767.50;5239276;34;34164;-84
2022/11/15 04:50:20;;;;;;;21.37;10.95;;;;;;;4.97;100.00;100755.72;5237475;34;33503;-84
2022/11/15 04:53:41;;;;;;;24.73;12.35;;;;;;;4.92;100.00;100754.41;5237579;34;33380;-84
2022/11/15 04:57:03;;;;;;;24.02;11.70;;;;;;;4.96;100.00;100745.16;5224665;34;33437;-84
2022/11/15 05:00:24;;;;;;;19.75;10.57;;;;;;;4.99;100.00;100740.41;5237711;34;33917;-84
2022/11/15 05:07:35;;;;;;;22.73;10.82;;;;;;;5.05;100.00;100735.50;5226518;34;33744;-85
2022/11/15 05:10:56;;;;;;;18.70;9.63;;;;;;;4.97;100.00;100730.81;5237980;34;34044;-86
2022/11/15 05:14:18;;;;;;;22.45;10.88;;;;;;;4.98;100.00;100732.53;5237377;34;33570;-85
2022/11/15 05:17:38;;;;;;;22.98;11.30;;;;;;;5.02;100.00;100739.28;5237396;34;34428;-85
2022/11/15 05:21:10;;;;;;;20.92;11.30;;;;;;;5.00;100.00;100736.78;5237544;34;34060;-85
2022/11/15 05:24:31;;;;;;;20.90;10.20;;;;;;;5.07;100.00;100738.91;5237069;34;33859;-85
2022/11/15 05:27:52;;;;;;;19.33;11.23;;;;;;;5.15;100.00;100747.09;5239299;34;33721;-85
2022/11/15 05:31:16;;;;;;;19.83;11.25;;;;;;;5.15;100.00;100750.59;5237569;34;34632;-86
2022/11/15 05:34:37;;;;;;;19.87;11.23;;;;;;;5.26;100.00;100754.16;5224106;34;34059;-86
2022/11/15 05:37:58;;;;;;;22.40;12.00;;;;;;;5.32;100.00;100743.75;5236998;34;34396;-85
2022/11/15 05:41:25;;;;;;;22.00;11.45;;;;;;;5.45;100.00;100740.88;5223909;33;32931;-85
2022/11/15 05:44:49;;;;;;;23.55;12.45;;;;;;;5.40;100.00;100738.59;5223463;34;34612;-85
2022/11/15 05:48:10;;;;;;;22.67;12.25;;;;;;;5.35;100.00;100737.31;5220126;34;34083;-85
2022/11/15 05:51:32;;;;;;;21.70;11.68;;;;;;;5.31;100.00;100750.09;5215766;34;34600;-85
2022/11/15 05:54:53;;;;;;;21.80;11.93;;;;;;;5.29;100.00;100743.19;5216826;34;34436;-89
2022/11/15 05:58:15;;;;;;;21.30;12.75;;;;;;;5.47;100.00;100744.25;5219996;34;33844;-86
2022/11/15 06:01:36;;;;;;;23.52;11.82;;;;;;;5.50;100.00;100724.44;5221620;34;33987;-85
2022/11/15 06:04:57;;;;;;;22.98;12.02;;;;;;;5.50;100.00;100735.97;5228175;34;33896;-86
2022/11/15 06:08:18;;;;;;;24.25;12.00;;;;;;;5.47;100.00;100728.25;5220963;34;34228;-85
2022/11/15 06:11:38;;;;;;;21.90;12.10;;;;;;;5.51;100.00;100731.47;5223185;34;34147;-85
2022/11/15 06:14:59;;;;;;;21.98;11.82;;;;;;;5.49;100.00;100728.09;5228252;34;34322;-85
2022/11/15 06:18:20;;;;;;;23.00;12.77;;;;;;;5.47;100.00;100728.25;5229882;34;34439;-85
2022/11/15 06:21:41;;;;;;;22.50;12.30;;;;;;;5.55;100.00;100728.37;5215055;34;34635;-85
2022/11/15 06:25:02;;;;;;;23.95;12.93;;;;;;;5.66;100.00;100722.09;5201297;34;34851;-86
2022/11/15 06:28:30;;;;;;;26.00;13.25;;;;;;;5.76;100.00;100724.75;5201870;34;33857;-85
2022/11/15 06:31:52;;;;;;;24.77;12.57;;;;;;;5.68;100.00;100723.66;5212809;34;32490;-85
2022/11/15 06:35:14;;;;;;;24.73;12.48;;;;;;;5.68;100.00;100726.31;5211583;34;32958;-85
2022/11/15 06:38:36;;;;;;;23.38;13.38;;;;;;;5.71;100.00;100746.56;5203176;34;34013;-85
2022/11/15 06:41:57;;;;;;;24.83;12.55;;;;;;;5.76;100.00;100739.00;5208710;34;34203;-86
2022/11/15 06:45:18;;;;;;;23.27;12.37;;;;;;;5.67;100.00;100731.78;5206929;34;32402;-85
2022/11/15 06:48:39;;;;;;;23.23;13.13;;;;;;;5.61;100.00;100729.66;5218917;34;34091;-88
2022/11/15 06:52:00;;;;;;;26.92;14.23;;;;;;;5.61;100.00;100725.16;5219154;34;34259;-86
2022/11/15 06:55:21;;;;;;;25.50;14.02;;;;;;;5.58;100.00;100733.44;5206774;34;32583;-85
2022/11/15 06:58:42;;;;;;;26.67;14.63;;;;;;;5.57;100.00;100731.78;5215642;34;125395;-86
2022/11/15 07:02:03;;;;;;;27.65;14.27;;;;;;;5.54;100.00;100734.72;5206019;34;32972;-85
2022/11/15 07:05:24;;;;;;;28.20;15.07;;;;;;;5.55;100.00;100722.19;5206336;34;32518;-85
2022/11/15 07:08:45;;;;;;;29.55;15.13;;;;;;;5.61;100.00;100730.50;5218916;34;34094;-85
2022/11/15 07:12:07;;;;;;;30.98;15.82;;;;;;;5.65;100.00;100726.59;5219418;34;33865;-85
2022/11/15 07:15:28;;;;;;;29.58;14.32;;;;;;;5.63;100.00;100720.53;5217705;34;33437;-85
2022/11/15 07:18:49;;;;;;;30.55;15.10;;;;;;;5.66;100.00;100720.25;5218233;34;32633;-86
2022/11/15 07:22:10;;;;;;;28.38;14.90;;;;;;;5.65;100.00;100723.09;5218982;34;33944;-86
2022/11/15 07:25:31;;;;;;;26.90;14.60;;;;;;;5.77;100.00;100730.00;5219122;34;34433;-85
2022/11/15 07:28:53;;;;;;;29.27;14.85;;;;;;;5.91;100.00;100715.37;5213596;34;33941;-85
2022/11/15 07:32:13;;;;;;;26.45;14.55;;;;;;;5.91;100.00;100710.88;5220058;34;35272;-85
2022/11/15 07:35:34;;;;;;;26.98;14.27;;;;;;;6.05;100.00;100712.31;5209846;34;33761;-85
2022/11/15 07:38:55;;;;;;;29.42;15.13;;;;;;;6.09;100.00;100715.56;5210155;34;31880;-85
2022/11/15 07:45:56;;;;;;;26.40;14.90;;;;;;;6.21;100.00;100716.28;5221114;34;34001;-85
2022/11/15 07:49:19;;;;;;;27.67;15.85;;;;;;;6.15;100.00;100728.37;5208418;34;32790;-85
2022/11/15 07:52:40;;;;;;;26.12;14.18;;;;;;;6.27;100.00;100721.03;5208931;34;32531;-85
2022/11/15 07:56:02;;;;;;;25.95;14.73;;;;;;;6.26;100.00;100709.50;5222259;34;33944;-85
2022/11/15 07:59:23;;;;;;;27.27;14.30;;;;;;;6.30;100.00;100704.72;5222208;34;34141;-84
2022/11/15 08:02:44;;;;;;;28.75;15.77;;;;;;;6.37;100.00;100705.81;5208226;34;34012;-86
2022/11/15 08:06:06;;;;;;;28.87;15.68;;;;;;;6.46;100.00;100707.63;5220362;34;34204;-86
2022/11/15 08:09:27;;;;;;;37.80;16.55;;;;;;;6.50;100.00;100706.38;5222303;34;34321;-90
2022/11/15 08:12:48;;;;;;;26.05;15.35;;;;;;;6.63;100.00;100708.75;5223384;34;34668;-88
2022/11/15 08:16:09;;;;;;;29.20;15.60;;;;;;;6.80;100.00;100694.63;5226202;34;35501;-85
2022/11/15 08:19:30;;;;;;;27.77;16.02;;;;;;;6.86;100.00;100695.88;5226921;34;34938;-85
2022/11/15 08:22:51;;;;;;;33.78;16.58;;;;;;;6.96;100.00;100686.00;5221294;34;34469;-85
2022/11/15 08:26:12;;;;;;;27.35;16.15;;;;;;;7.01;100.00;100686.38;5220930;34;33820;-82
2022/11/15 08:29:33;;;;;;;30.73;16.08;;;;;;;6.99;100.00;100690.19;5205158;34;32405;-85
2022/11/15 08:32:57;;;;;;;26.87;15.88;;;;;;;6.96;100.00;100682.44;5219317;34;34549;-82
2022/11/15 08:36:18;;;;;;;30.50;15.80;;;;;;;6.74;100.00;100664.94;5232540;34;34330;-83
2022/11/15 08:39:39;;;;;;;28.27;16.75;;;;;;;6.61;100.00;100665.25;5219486;34;32705;-82
2022/11/15 08:43:02;;;;;;;28.60;16.42;;;;;;;6.55;100.00;100668.47;5236020;34;34242;-85
2022/11/15 08:46:25;;;;;;;31.23;16.73;;;;;;;6.53;100.00;100652.59;5236314;34;35397;-86
2022/11/15 08:49:46;;;;;;;31.92;17.62;;;;;;;6.64;100.00;100656.94;5214408;34;32324;-85
2022/11/15 08:53:08;;;;;;;33.67;17.20;;;;;;;6.69;100.00;100661.84;5226847;34;33857;-85
2022/11/15 08:56:30;;;;;;;34.42;17.87;;;;;;;6.78;100.00;100653.78;5220535;34;34746;-86
2022/11/15 08:59:51;;;;;;;31.67;17.98;;;;;;;6.75;100.00;100651.38;5225234;34;34715;-86
2022/11/15 09:03:12;;;;;;;34.03;18.80;;;;;;;6.69;100.00;100653.81;5227991;34;34907;-87
2022/11/15 09:06:33;;;;;;;32.90;17.70;;;;;;;6.69;100.00;100653.81;5228641;34;34631;-84
2022/11/15 09:09:54;;;;;;;33.70;18.85;;;;;;;6.84;100.00;100656.84;5220834;34;34039;-85
2022/11/15 09:13:15;;;;;;;34.50;18.85;;;;;;;6.76;100.00;100652.25;5225875;34;34103;-85
2022/11/15 09:16:35;;;;;;;30.95;17.23;;;;;;;6.78;100.00;100650.25;5219208;34;34165;-84
2022/11/15 09:19:56;;;;;;;30.67;18.80;;;;;;;6.81;100.00;100650.84;5231939;34;34228;-84
2022/11/15 09:23:18;;;;;;;32.58;17.90;;;;;;;6.95;100.00;100625.41;5229761;34;34096;-86
2022/11/15 09:26:40;;;;;;;30.80;18.45;;;;;;;7.13;100.00;100622.75;5230006;34;34252;-84
2022/11/15 09:30:01;;;;;;;33.05;19.08;;;;;;;7.34;100.00;100625.19;5229389;34;35317;-85
2022/11/15 09:33:22;;;;;;;32.72;19.98;;;;;;;7.46;100.00;100628.50;5232174;34;34286;-85
2022/11/15 09:36:43;;;;;;;32.90;19.00;;;;;;;7.47;100.00;100622.12;5231509;34;34582;-85
2022/11/15 09:40:05;;;;;;;35.22;20.37;;;;;;;7.48;100.00;100613.09;5234574;34;34476;-83
2022/11/15 09:43:47;;;;;;;36.30;21.02;;;;;;;7.47;100.00;100611.44;5230189;34;34498;-84
2022/11/15 09:47:45;;;;;;;37.75;21.77;;;;;;;7.30;100.00;100607.72;5237252;34;35579;-84
2022/11/15 09:50:51;;;;;;;39.92;24.35;;;;;;;7.30;100.00;100607.72;5221677;34;33951;-85
2022/11/15 09:54:11;;;;;;;38.47;22.73;;;;;;;7.37;100.00;100610.63;5237423;34;34650;-84
2022/11/15 09:58:00;;;;;;;39.13;23.27;;;;;;;7.47;100.00;100608.75;5235427;34;35381;-86
2022/11/15 10:01:11;;;;;;;38.70;22.55;;;;;;;7.52;100.00;100602.91;5214347;34;34373;-85
2022/11/15 10:04:15;;;;;;;33.78;20.65;;;;;;;7.50;100.00;100611.13;5217024;34;33206;-84
2022/11/15 10:07:36;;;;;;;36.13;21.10;;;;;;;7.47;100.00;100608.75;5221283;34;34234;-83
2022/11/15 10:10:45;;;;;;;39.03;20.85;;;;;;;7.48;100.00;100600.53;5229300;34;34294;-83
2022/11/15 10:13:51;;;;;;;33.88;18.98;;;;;;;7.43;100.00;100592.16;5225237;34;32349;-83
2022/11/15 10:17:09;;;;;;;35.05;20.73;;;;;;;7.42;100.00;100597.63;5228947;34;33775;-83
2022/11/15 10:20:21;;;;;;;35.15;19.85;;;;;;;7.57;100.00;100589.91;5207230;34;32633;-83
2022/11/15 10:23:24;;;;;;;37.33;22.48;;;;;;;7.54;100.00;100584.84;5219610;34;33604;-83
2022/11/15 10:26:28;;;;;;;37.97;22.13;;;;;;;7.46;100.00;100569.56;5218385;34;34186;-84
2022/11/15 10:29:30;;;;;;;37.33;21.30;;;;;;;7.47;100.00;100561.38;5219435;34;33957;-85
2022/11/15 10:32:36;;;;;;;34.10;21.42;;;;;;;7.51;100.00;100567.25;5225943;34;33212;-82
2022/11/15 10:35:38;;;;;;;37.90;21.58;;;;;;;7.56;100.00;100564.97;5216635;34;32515;-84
2022/11/15 10:38:50;;;;;;;39.42;21.67;;;;;;;7.54;100.00;100558.06;5207268;34;32642;-83
2022/11/15 10:41:54;;;;;;;35.63;22.02;;;;;;;7.49;100.00;100551.34;5228181;34;34872;-86
2022/11/15 10:44:57;;;;;;;34.83;20.00;;;;;;;7.61;100.00;100554.63;5225381;34;34310;-87
2022/11/15 10:48:12;;;;;;;35.78;20.75;;;;;;;7.41;100.00;100556.63;5226312;34;34405;-87
2022/11/15 10:51:25;;;;;;;37.55;21.30;;;;;;;7.53;100.00;100543.00;5212218;34;32351;-83
2022/11/15 10:54:35;;;;;;;36.20;21.00;;;;;;;7.53;100.00;100525.09;5221926;34;33556;-83
2022/11/15 10:57:38;;;;;;;31.80;19.85;;;;;;;7.62;100.00;100524.16;5222265;34;34812;-83
2022/11/15 11:00:43;;;;;;;34.30;19.77;;;;;;;7.69;100.00;100525.22;5221873;34;34143;-83
2022/11/15 11:04:05;;;;;;;33.42;19.40;;;;;;;7.75;100.00;100520.22;5219464;34;34392;-83
2022/11/15 11:07:23;;;;;;;34.05;18.33;;;;;;;7.78;100.00;100515.41;5220793;34;34717;-83
2022/11/15 11:10:27;;;;;;;34.42;20.90;;;;;;;7.76;100.00;100506.69;5223219;34;34480;-83
2022/11/15 11:13:50;;;;;;;35.13;20.10;;;;;;;7.92;100.00;100506.78;5223224;34;34650;-83
2022/11/15 11:17:14;;;;;;;32.75;18.67;;;;;;;7.91;100.00;100506.94;5222883;34;35225;-83
2022/11/15 11:20:22;;;;;;;39.58;20.62;;;;;;;7.91;100.00;100496.22;5211501;34;32188;-82
2022/11/15 11:23:43;;;;;;;34.25;20.00;;;;;;;8.00;100.00;100487.22;5224649;34;33835;-82
2022/11/15 11:27:14;;;;;;;32.25;18.83;;;;;;;8.08;100.00;100481.09;5226521;34;33755;-83
2022/11/15 11:30:16;;;;;;;31.35;17.58;;;;;;;7.94;100.00;100490.56;5235353;34;34070;-83
2022/11/15 11:33:44;;;;;;;31.77;19.10;;;;;;;7.99;100.00;100476.69;5217155;34;32486;-83
2022/11/15 11:37:12;;;;;;;33.20;19.30;;;;;;;7.98;100.00;100480.34;5218901;34;34783;-83
2022/11/15 11:40:23;;;;;;;31.30;19.20;;;;;;;7.85;100.00;100488.81;5222095;34;34750;-82
2022/11/15 11:43:26;;;;;;;35.42;20.40;;;;;;;7.64;100.00;100481.97;5221414;34;34208;-82
2022/11/15 11:46:39;;;;;;;31.05;20.35;;;;;;;7.68;100.00;100477.97;5216308;34;35394;-83
2022/11/15 11:49:54;;;;;;;33.67;18.95;;;;;;;7.67;100.00;100470.09;5214697;34;33669;-82
2022/11/15 11:53:10;;;;;;;39.00;21.08;;;;;;;7.58;100.00;100463.00;5211582;34;32897;-84
2022/11/15 11:56:23;;;;;;;35.92;21.75;;;;;;;7.59;100.00;100456.66;5218875;34;34571;-84
2022/11/15 11:59:53;;;;;;;35.38;20.10;;;;;;;7.65;100.00;100456.00;5213809;34;32157;-83
2022/11/15 12:03:07;;;;;;;37.27;20.70;;;;;;;7.79;100.00;100452.75;5208155;34;33657;-83
2022/11/15 12:06:40;;;;;;;35.42;19.50;;;;;;;7.89;100.00;100434.72;5210880;34;33492;-83
2022/11/15 12:10:09;;;;;;;35.55;19.50;;;;;;;7.78;100.00;100429.66;5219905;34;34427;-83
2022/11/15 12:13:18;;;;;;;34.40;19.00;;;;;;;7.62;100.00;100435.72;5229577;34;33700;-81
2022/11/15 12:16:27;;;;;;;36.88;20.37;;;;;;;7.58;100.00;100433.53;5225506;34;31861;-82
2022/11/15 12:19:31;;;;;;;32.90;18.20;;;;;;;7.69;100.00;100418.03;5220997;34;33195;-82
2022/11/15 12:22:45;;;;;;;29.23;17.60;;;;;;;7.68;100.00;100419.03;5207362;34;34142;-82
2022/11/15 12:25:54;;;;;;;31.87;17.92;;;;;;;7.75;100.00;100415.69;5208694;34;33854;-83
2022/11/15 12:29:00;;;;;;;32.90;19.02;;;;;;;7.75;100.00;100410.34;5209556;34;33955;-82
2022/11/15 12:32:32;;;;;;;32.03;19.08;;;;;;;7.74;100.00;100406.84;5209554;34;33581;-83
2022/11/15 12:35:41;;;;;;;34.85;20.58;;;;;;;7.62;100.00;100411.62;5210613;34;35085;-87
2022/11/15 12:38:56;;;;;;;36.80;20.70;;;;;;;7.59;100.00;100395.84;5207667;34;34733;-83
2022/11/15 12:42:01;;;;;;;38.40;20.67;;;;;;;7.62;100.00;100400.06;5206147;33;32380;-83
2022/11/15 12:45:33;;;;;;;33.45;20.25;;;;;;;7.63;100.00;100397.22;5211569;34;34154;-83
2022/11/15 12:48:36;;;;;;;47.20;21.33;;;;;;;7.62;100.00;100400.06;5210587;34;34383;-83
2022/11/15 12:51:42;;;;;;;39.15;20.73;;;;;;;7.58;100.00;100396.87;5210033;34;33553;-83
2022/11/15 12:54:56;;;;;;;37.35;21.58;;;;;;;7.63;100.00;100383.81;5209632;34;32875;-83
2022/11/15 12:58:26;;;;;;;43.50;22.37;;;;;;;7.69;100.00;100380.53;5208976;34;34898;-83
2022/11/15 13:01:37;;;;;;;45.00;23.80;;;;;;;7.49;100.00;100381.75;5206381;34;34029;-82
2022/11/15 13:04:40;;;;;;;42.15;25.20;;;;;;;7.57;100.00;100375.56;5207842;34;34440;-82
2022/11/15 13:07:44;;;;;;;40.33;23.27;;;;;;;7.54;100.00;100370.53;5206642;34;34293;-82
2022/11/15 13:10:48;;;;;;;43.15;25.62;;;;;;;7.42;100.00;100368.12;5194874;34;32721;-82
2022/11/15 13:13:50;;;;;;;41.60;22.37;;;;;;;7.38;100.00;100365.94;5209976;34;34339;-81
2022/11/15 13:16:59;;;;;;;41.85;22.70;;;;;;;7.22;100.00;100372.84;5210672;34;33466;-82
2022/11/15 13:20:11;;;;;;;43.10;21.52;;;;;;;7.16;100.00;100369.94;5210345;34;34010;-83
2022/11/15 13:23:16;;;;;;;44.42;23.00;;;;;;;7.10;100.00;100378.59;5216310;34;32860;-83
2022/11/15 13:26:20;;;;;;;42.60;23.15;;;;;;;7.09;100.00;100376.94;5209391;34;32615;-86
2022/11/15 13:29:23;;;;;;;46.03;25.42;;;;;;;6.99;100.00;100369.84;5211872;34;32652;-86
2022/11/15 13:32:26;;;;;;;46.42;23.52;;;;;;;7.00;100.00;100362.66;5214492;34;34795;-83
2022/11/15 13:35:33;;;;;;;43.25;24.37;;;;;;;7.11;100.00;100367.75;5210955;34;33630;-83
2022/11/15 13:38:38;;;;;;;45.00;23.15;;;;;;;7.06;100.00;100361.19;5222962;34;33857;-85
2022/11/15 13:41:50;;;;;;;41.42;22.40;;;;;;;7.02;100.00;100358.81;5219403;34;33977;-85
2022/11/15 13:44:58;;;;;;;45.17;22.48;;;;;;;7.02;100.00;100364.16;5224939;34;34415;-85
2022/11/15 13:48:03;;;;;;;47.75;23.52;;;;;;;7.17;100.00;100350.22;5221417;34;34617;-86
2022/11/15 13:51:29;;;;;;;43.40;21.95;;;;;;;7.23;100.00;100350.44;5219611;34;33254;-85
2022/11/15 13:54:43;;;;;;;38.72;21.23;;;;;;;7.19;100.00;100348.22;5218479;34;34517;-85
2022/11/15 13:57:51;;;;;;;37.50;21.62;;;;;;;7.17;100.00;100342.19;5219628;34;34149;-84
2022/11/15 14:01:01;;;;;;;39.72;21.48;;;;;;;7.20;100.00;100323.97;5206853;34;33718;-84
2022/11/15 14:04:04;;;;;;;37.55;20.90;;;;;;;7.29;100.00;100310.66;5219393;34;33682;-84
2022/11/15 14:07:18;;;;;;;37.47;20.67;;;;;;;7.27;100.00;100314.31;5216940;34;33662;-84
2022/11/15 14:10:28;;;;;;;35.45;19.98;;;;;;;7.22;100.00;100323.81;5219476;34;34652;-84
2022/11/15 14:13:31;;;;;;;35.80;19.63;;;;;;;7.21;100.00;100314.94;5221171;34;34391;-84
2022/11/15 14:16:44;;;;;;;37.85;20.25;;;;;;;7.05;100.00;100314.84;5218028;34;34421;-84
2022/11/15 14:19:47;;;;;;;34.40;18.55;;;;;;;7.05;100.00;100314.84;5205770;34;32707;-84
2022/11/15 14:22:58;;;;;;;35.33;19.55;;;;;;;6.93;100.00;100306.22;5232102;34;34930;-84
2022/11/15 14:26:01;;;;;;;39.40;21.23;;;;;;;6.82;100.00;100318.00;5220153;34;35357;-88
2022/11/15 14:29:28;;;;;;;41.85;21.23;;;;;;;6.73;100.00;100302.06;5220357;34;34196;-89
2022/11/15 14:32:58;;;;;;;34.50;19.25;;;;;;;6.70;100.00;100313.03;5201642;34;34505;-85
2022/11/15 14:36:13;;;;;;;37.70;18.83;;;;;;;6.77;100.00;100306.09;5217904;34;34308;-84
2022/11/15 14:39:16;;;;;;;35.63;18.58;;;;;;;6.67;100.00;100302.66;5217932;34;34938;-85
2022/11/15 14:42:20;;;;;;;38.28;20.58;;;;;;;6.65;100.00;100302.81;5219171;34;33670;-84
2022/11/15 14:45:23;;;;;;;40.17;20.88;;;;;;;6.65;100.00;100293.97;5219365;34;34421;-84
2022/11/15 14:48:26;;;;;;;41.15;21.02;;;;;;;6.68;100.00;100290.97;5220079;34;34531;-85
2022/11/15 14:51:28;;;;;;;39.70;20.12;;;;;;;6.62;100.00;100284.41;5219355;34;34623;-85
2022/11/15 14:54:31;;;;;;;38.90;19.77;;;;;;;6.63;100.00;100285.22;5221376;34;33682;-85
2022/11/15 14:57:34;;;;;;;36.53;18.80;;;;;;;6.63;100.00;100271.88;5220917;34;34083;-85
2022/11/15 15:00:40;;;;;;;35.15;18.10;;;;;;;6.68;100.00;100269.56;5220537;34;34352;-85
2022/11/15 15:03:44;;;;;;;32.13;17.77;;;;;;;6.62;100.00;100257.66;5206192;34;32790;-85
2022/11/15 15:06:46;;;;;;;35.97;17.58;;;;;;;6.60;100.00;100270.34;5219645;34;34615;-85
2022/11/15 15:09:49;;;;;;;35.17;17.98;;;;;;;6.62;100.00;100270.19;5206090;34;32586;-85
2022/11/15 15:12:52;;;;;;;31.77;17.73;;;;;;;6.62;100.00;100275.53;5219776;34;33789;-85
2022/11/15 15:15:58;;;;;;;35.25;18.55;;;;;;;6.64;100.00;100263.69;5219409;34;34530;-84
2022/11/15 15:19:00;;;;;;;34.60;18.42;;;;;;;6.64;100.00;100263.69;5236056;34;34602;-85
2022/11/15 15:22:04;;;;;;;34.20;18.87;;;;;;;6.68;100.00;100259.69;5223898;34;32361;-85
2022/11/15 15:25:23;;;;;;;35.30;18.62;;;;;;;6.70;100.00;100256.84;5219208;34;33814;-85
2022/11/15 15:28:26;;;;;;;34.60;18.35;;;;;;;6.72;100.00;100257.56;5214882;34;34145;-85
2022/11/15 15:31:36;;;;;;;30.98;16.40;;;;;;;6.60;100.00;100254.28;5217946;34;34187;-85
2022/11/15 15:34:39;;;;;;;30.60;17.15;;;;;;;6.63;100.00;100245.94;5219233;34;34403;-85
2022/11/15 15:37:44;;;;;;;33.85;17.42;;;;;;;6.62;100.00;100244.28;5221905;34;33502;-85
2022/11/15 15:40:48;;;;;;;32.85;18.42;;;;;;;6.61;100.00;100253.31;5218496;34;32577;-85
2022/11/15 15:43:53;;;;;;;31.67;16.98;;;;;;;6.64;100.00;100255.66;5218184;34;33813;-85
2022/11/15 15:46:57;;;;;;;31.65;16.67;;;;;;;6.66;100.00;100264.34;5220022;34;33982;-85
2022/11/15 15:50:00;;;;;;;27.92;16.02;;;;;;;6.72;100.00;100263.72;5219206;34;34752;-85
2022/11/15 15:53:03;;;;;;;29.95;15.73;;;;;;;6.64;100.00;100255.66;5219847;34;34591;-85
2022/11/15 15:56:07;;;;;;;31.05;16.15;;;;;;;6.64;100.00;100247.66;5206547;34;32957;-85
2022/11/15 15:59:10;;;;;;;28.52;16.00;;;;;;;6.74;100.00;100252.88;5219454;34;34032;-85
2022/11/15 16:02:13;;;;;;;34.05;17.70;;;;;;;6.66;100.00;100245.62;5219668;34;34125;-85
2022/11/15 16:05:17;;;;;;;32.45;18.05;;;;;;;6.62;100.00;100246.94;5219231;34;34723;-85
2022/11/15 16:08:22;;;;;;;29.63;16.17;;;;;;;6.61;100.00;100255.13;5219113;34;34610;-84
2022/11/15 16:11:25;;;;;;;33.58;17.92;;;;;;;6.67;100.00;100249.12;5218989;34;34547;-84
2022/11/15 16:14:28;;;;;;;29.35;16.02;;;;;;;6.66;100.00;100253.66;5219652;34;33473;-84
2022/11/15 16:17:34;;;;;;;33.13;17.55;;;;;;;6.60;100.00;100246.25;5223106;34;33899;-84
2022/11/15 16:20:39;;;;;;;30.40;16.65;;;;;;;6.67;100.00;100241.97;5224768;34;34650;-84
2022/11/15 16:23:42;;;;;;;28.25;16.20;;;;;;;6.64;100.00;100242.28;5223778;34;34955;-84
2022/11/15 16:26:45;;;;;;;29.77;15.32;;;;;;;6.77;100.00;100237.34;5219866;34;33630;-86
2022/11/15 16:29:49;;;;;;;33.85;17.08;;;;;;;6.73;100.00;100243.19;5220034;34;34122;-85
2022/11/15 16:32:53;;;;;;;33.10;16.40;;;;;;;6.74;100.00;100242.19;5220948;34;34928;-85
2022/11/15 16:35:56;;;;;;;32.05;17.27;;;;;;;6.77;100.00;100240.03;5208248;34;33699;-85
2022/11/15 16:38:59;;;;;;;34.63;17.90;;;;;;;6.76;100.00;100245.56;5206120;34;32768;-85
2022/11/15 16:42:02;;;;;;;37.55;17.52;;;;;;;6.72;100.00;100242.34;5221683;34;34139;-85
2022/11/15 16:45:05;;;;;;;36.30;17.65;;;;;;;6.70;100.00;100238.13;5224894;34;32242;-85
2022/11/15 16:48:22;;;;;;;33.75;17.20;;;;;;;6.73;100.00;100229.81;5220954;34;33734;-85
2022/11/15 16:51:24;;;;;;;35.20;17.10;;;;;;;6.74;100.00;100226.97;5222766;34;34190;-85
2022/11/15 16:54:28;;;;;;;33.53;17.52;;;;;;;6.75;100.00;100223.28;5206708;34;32514;-85
2022/11/15 16:57:30;;;;;;;34.88;18.52;;;;;;;6.80;100.00;100225.50;5216779;34;34116;-85
2022/11/15 17:00:33;;;;;;;32.50;16.95;;;;;;;6.70;100.00;100214.06;5207130;34;33677;-85
2022/11/15 17:03:36;;;;;;;37.95;18.92;;;;;;;6.85;100.00;100223.22;5204619;34;34189;-85
2022/11/15 17:06:40;;;;;;;33.47;17.42;;;;;;;6.78;100.00;100216.78;5217658;34;33902;-85
2022/11/15 17:09:43;;;;;;;39.83;19.67;;;;;;;6.70;100.00;100214.06;5192282;34;33272;-85
2022/11/15 17:12:46;;;;;;;39.03;19.70;;;;;;;6.72;100.00;100212.06;5205055;34;32275;-85
2022/11/15 17:15:49;;;;;;;39.55;20.25;;;;;;;6.73;100.00;100213.78;5206211;34;33631;-85
2022/11/15 17:18:52;;;;;;;40.90;20.23;;;;;;;6.76;100.00;100213.44;5198176;34;32425;-85
2022/11/15 17:21:54;;;;;;;38.17;19.75;;;;;;;6.73;100.00;100208.41;5219634;34;33645;-85
